LFRZ

Saint-Nazaire-Montoir Airport

Airport
ICAO code
LFRZ
IATA Code
SNR
Summary
ICAO Region
EUR
ICAO Territory
Location

, Pays de la Loire

Serving
St.-nazaire
Elevation
13 ft
Coordinates
47° 18' 44" N , 2° 8' 57" W
Metar
Observation
LFRZ 030230Z AUTO 02006KT 9000 OVC022 03/01 Q1016 TEMPO 4500 -RA BKN004
Station
St-Nazaire
Date/Time
2022-12-03 02:30:00
Wind direction
20°
Wind speed
06 kts
Lowest cloud amount
overcast
Temperature
3°C
Dew point
1°C
Humidity
86%
QNH
1016 hPa
Weather condition
n/a

Runways

Designator Length Width Surface Rops
8/26 2400 45 ASP No/No

Airport map

Aerial View

SKYbrary Partners:

Safety knowledge contributed by: